Terminal Aerodrome Forecast
Issued by NWS Twin Cities, MN

Home | Current Version | Previous Version | Text Only | Print | Product List | Glossary Off
Versions: 1 2 3 4 5 6 7 8 9 10 11 12 13 14 15 16 17

000
FTUS43 KMPX 181700 RRA
TAFEAU
TAF
KEAU 181740Z 1818/1918 28010KT P6SM SCT025 BKN035
     FM190000 19005KT P6SM BKN035
     FM190800 18004KT 2SM -SN OVC015
     FM191400 28012G21KT 6SM -SN OVC020=

USA.gov is the U.S. government's official web portal to all federal, state and local government web resources and services.